sensor_id;sensor_type;location;lat;lon;timestamp;pressure;altitude;pressure_sealevel;temperature;humidity
51829;BME280;37881;48.024;8.774;2023-02-17T13:47:33;94803.38;;;19.67;49.93
51829;BME280;37881;48.024;8.774;2023-02-17T13:50:04;94791.97;;;19.30;49.08
51829;BME280;37881;48.024;8.774;2023-02-17T13:52:31;94802.03;;;19.15;48.50
51829;BME280;37881;48.024;8.774;2023-02-17T14:19:49;94801.53;;;11.48;100.00
51829;BME280;37881;48.024;8.774;2023-02-17T14:22:27;94807.88;;;11.30;100.00
51829;BME280;37881;48.024;8.774;2023-02-17T14:25:06;94815.69;;;11.39;100.00
51829;BME280;37881;48.024;8.774;2023-02-17T14:27:45;94816.81;;;11.49;100.00
51829;BME280;37881;48.024;8.774;2023-02-17T14:33:16;94805.78;;;11.63;100.00
51829;BME280;37881;48.024;8.774;2023-02-17T14:38:39;94817.56;;;11.56;100.00
51829;BME280;37881;48.024;8.774;2023-02-17T14:41:07;94821.06;;;11.64;100.00
51829;BME280;37881;48.024;8.774;2023-02-17T14:43:35;94818.69;;;11.73;100.00
51829;BME280;37881;48.024;8.774;2023-02-17T14:46:02;94822.28;;;11.59;100.00
51829;BME280;37881;48.024;8.774;2023-02-17T14:48:29;94813.22;;;11.66;100.00
51829;BME280;37881;48.024;8.774;2023-02-17T14:50:56;94821.09;;;11.60;100.00
51829;BME280;37881;48.024;8.774;2023-02-17T14:53:29;94821.19;;;11.39;100.00
51829;BME280;37881;48.024;8.774;2023-02-17T14:58:34;94818.03;;;11.44;100.00
51829;BME280;37881;48.024;8.774;2023-02-17T15:01:00;94826.28;;;11.44;100.00
51829;BME280;37881;48.024;8.774;2023-02-17T15:03:27;94817.69;;;11.28;100.00
51829;BME280;37881;48.024;8.774;2023-02-17T15:05:54;94816.91;;;11.31;100.00
51829;BME280;37881;48.024;8.774;2023-02-17T15:08:26;94825.94;;;11.35;100.00
51829;BME280;37881;48.024;8.774;2023-02-17T15:10:54;94811.69;;;11.54;100.00
51829;BME280;37881;48.024;8.774;2023-02-17T15:13:20;94817.97;;;11.58;100.00
51829;BME280;37881;48.024;8.774;2023-02-17T15:15:47;94812.47;;;11.58;100.00
51829;BME280;37881;48.024;8.774;2023-02-17T15:18:17;94805.41;;;11.57;100.00
51829;BME280;37881;48.024;8.774;2023-02-17T15:20:46;94809.00;;;11.47;100.00
51829;BME280;37881;48.024;8.774;2023-02-17T15:23:17;94819.63;;;11.34;100.00
51829;BME280;37881;48.024;8.774;2023-02-17T15:25:46;94818.84;;;11.37;100.00
51829;BME280;37881;48.024;8.774;2023-02-17T15:28:15;94809.84;;;11.26;100.00
51829;BME280;37881;48.024;8.774;2023-02-17T15:30:47;94802.75;;;11.29;100.00
51829;BME280;37881;48.024;8.774;2023-02-17T15:33:17;94804.28;;;11.40;100.00
51829;BME280;37881;48.024;8.774;2023-02-17T15:35:44;94798.41;;;11.38;100.00
51829;BME280;37881;48.024;8.774;2023-02-17T15:38:12;94790.31;;;10.99;100.00
51829;BME280;37881;48.024;8.774;2023-02-17T15:40:40;94799.34;;;10.96;100.00
51829;BME280;37881;48.024;8.774;2023-02-17T15:43:11;94789.50;;;10.98;100.00
51829;BME280;37881;48.024;8.774;2023-02-17T15:45:38;94792.69;;;10.90;100.00
51829;BME280;37881;48.024;8.774;2023-02-17T15:48:23;94782.13;;;10.77;100.00
51829;BME280;37881;48.024;8.774;2023-02-17T15:50:51;94780.16;;;10.74;100.00
51829;BME280;37881;48.024;8.774;2023-02-17T15:53:18;94793.50;;;10.76;100.00
51829;BME280;37881;48.024;8.774;2023-02-17T15:55:46;94796.25;;;10.79;100.00
51829;BME280;37881;48.024;8.774;2023-02-17T15:58:15;94791.53;;;10.76;100.00
51829;BME280;37881;48.024;8.774;2023-02-17T16:00:44;94795.06;;;10.66;100.00
51829;BME280;37881;48.024;8.774;2023-02-17T16:03:16;94790.38;;;10.74;100.00
51829;BME280;37881;48.024;8.774;2023-02-17T16:05:43;94802.16;;;10.64;100.00
51829;BME280;37881;48.024;8.774;2023-02-17T16:08:10;94797.81;;;10.66;100.00
51829;BME280;37881;48.024;8.774;2023-02-17T16:10:37;94803.31;;;10.73;100.00
51829;BME280;37881;48.024;8.774;2023-02-17T16:13:05;94792.75;;;10.65;100.00
51829;BME280;37881;48.024;8.774;2023-02-17T16:15:34;94815.13;;;10.52;100.00
51829;BME280;37881;48.024;8.774;2023-02-17T16:18:02;94808.44;;;10.50;100.00
51829;BME280;37881;48.024;8.774;2023-02-17T16:20:31;94808.84;;;10.41;100.00
51829;BME280;37881;48.024;8.774;2023-02-17T16:23:00;94805.69;;;10.28;100.00
51829;BME280;37881;48.024;8.774;2023-02-17T16:25:28;94809.25;;;10.32;100.00
51829;BME280;37881;48.024;8.774;2023-02-17T16:27:55;94811.53;;;10.16;100.00
51829;BME280;37881;48.024;8.774;2023-02-17T16:30:28;94808.00;;;10.15;100.00
51829;BME280;37881;48.024;8.774;2023-02-17T16:32:56;94801.38;;;10.16;100.00
51829;BME280;37881;48.024;8.774;2023-02-17T16:35:25;94802.91;;;9.99;100.00
51829;BME280;37881;48.024;8.774;2023-02-17T16:37:55;94803.28;;;9.87;100.00
51829;BME280;37881;48.024;8.774;2023-02-17T16:40:25;94799.38;;;9.85;100.00
51829;BME280;37881;48.024;8.774;2023-02-17T16:42:52;94804.84;;;9.74;100.00
51829;BME280;37881;48.024;8.774;2023-02-17T16:45:22;94806.00;;;9.73;100.00
51829;BME280;37881;48.024;8.774;2023-02-17T16:47:51;94794.25;;;9.69;100.00
51829;BME280;37881;48.024;8.774;2023-02-17T16:52:51;94793.44;;;9.65;100.00
51829;BME280;37881;48.024;8.774;2023-02-17T16:55:20;94801.66;;;9.61;100.00
51829;BME280;37881;48.024;8.774;2023-02-17T16:57:46;94800.06;;;9.56;100.00
51829;BME280;37881;48.024;8.774;2023-02-17T17:00:19;94798.09;;;9.53;100.00
51829;BME280;37881;48.024;8.774;2023-02-17T17:02:48;94805.53;;;9.53;100.00
51829;BME280;37881;48.024;8.774;2023-02-17T17:05:16;94802.03;;;9.52;100.00
51829;BME280;37881;48.024;8.774;2023-02-17T17:07:44;94804.00;;;9.52;100.00
51829;BME280;37881;48.024;8.774;2023-02-17T17:10:14;94815.31;;;9.47;100.00
51829;BME280;37881;48.024;8.774;2023-02-17T17:12:43;94821.56;;;9.47;100.00
51829;BME280;37881;48.024;8.774;2023-02-17T17:15:11;94823.16;;;9.48;100.00
51829;BME280;37881;48.024;8.774;2023-02-17T17:17:42;94813.75;;;9.49;100.00
51829;BME280;37881;48.024;8.774;2023-02-17T17:20:13;94817.28;;;9.53;100.00
51829;BME280;37881;48.024;8.774;2023-02-17T17:22:40;94826.66;;;9.49;100.00
51829;BME280;37881;48.024;8.774;2023-02-17T17:25:07;94830.97;;;9.46;100.00
51829;BME280;37881;48.024;8.774;2023-02-17T17:27:33;94828.63;;;9.45;100.00
51829;BME280;37881;48.024;8.774;2023-02-17T17:30:04;94824.66;;;9.35;100.00
51829;BME280;37881;48.024;8.774;2023-02-17T17:32:31;94830.91;;;9.32;100.00
51829;BME280;37881;48.024;8.774;2023-02-17T17:34:58;94837.13;;;9.25;100.00
51829;BME280;37881;48.024;8.774;2023-02-17T17:37:25;94838.31;;;9.24;100.00
51829;BME280;37881;48.024;8.774;2023-02-17T17:39:51;94832.00;;;9.16;100.00
51829;BME280;37881;48.024;8.774;2023-02-17T17:42:18;94829.22;;;9.09;100.00
51829;BME280;37881;48.024;8.774;2023-02-17T17:44:45;94826.84;;;9.00;100.00
51829;BME280;37881;48.024;8.774;2023-02-17T17:47:19;94825.63;;;8.91;100.00
51829;BME280;37881;48.024;8.774;2023-02-17T17:49:55;94833.00;;;8.83;100.00
51829;BME280;37881;48.024;8.774;2023-02-17T17:52:21;94827.13;;;8.77;100.00
51829;BME280;37881;48.024;8.774;2023-02-17T17:54:48;94829.41;;;8.72;100.00
51829;BME280;37881;48.024;8.774;2023-02-17T17:57:15;94830.19;;;8.72;100.00
51829;BME280;37881;48.024;8.774;2023-02-17T17:59:41;94832.53;;;8.70;100.00
51829;BME280;37881;48.024;8.774;2023-02-17T18:02:08;94820.81;;;8.70;100.00
51829;BME280;37881;48.024;8.774;2023-02-17T18:04:35;94826.22;;;8.63;100.00
51829;BME280;37881;48.024;8.774;2023-02-17T18:07:02;94825.78;;;8.57;100.00
51829;BME280;37881;48.024;8.774;2023-02-17T18:09:31;94832.03;;;8.54;100.00
51829;BME280;37881;48.024;8.774;2023-02-17T18:12:05;94822.97;;;8.46;100.00
51829;BME280;37881;48.024;8.774;2023-02-17T18:14:35;94833.91;;;8.46;100.00
51829;BME280;37881;48.024;8.774;2023-02-17T18:17:03;94831.97;;;8.47;100.00
51829;BME280;37881;48.024;8.774;2023-02-17T18:19:31;94831.19;;;8.46;100.00
51829;BME280;37881;48.024;8.774;2023-02-17T18:21:58;94837.06;;;8.48;100.00
51829;BME280;37881;48.024;8.774;2023-02-17T18:24:24;94844.88;;;8.46;100.00
51829;BME280;37881;48.024;8.774;2023-02-17T18:26:51;94841.25;;;8.38;100.00
51829;BME280;37881;48.024;8.774;2023-02-17T18:29:18;94836.28;;;8.48;100.00
51829;BME280;37881;48.024;8.774;2023-02-17T18:31:45;94837.03;;;8.45;100.00
51829;BME280;37881;48.024;8.774;2023-02-17T18:34:12;94831.91;;;8.39;100.00
51829;BME280;37881;48.024;8.774;2023-02-17T18:36:39;94827.94;;;8.37;100.00
51829;BME280;37881;48.024;8.774;2023-02-17T18:39:06;94822.88;;;8.39;100.00
51829;BME280;37881;48.024;8.774;2023-02-17T18:41:33;94828.41;;;8.43;100.00
51829;BME280;37881;48.024;8.774;2023-02-17T18:44:01;94820.56;;;8.37;100.00
51829;BME280;37881;48.024;8.774;2023-02-17T18:46:29;94832.34;;;8.42;100.00
51829;BME280;37881;48.024;8.774;2023-02-17T18:48:56;94831.22;;;8.50;100.00
51829;BME280;37881;48.024;8.774;2023-02-17T18:51:23;94839.78;;;8.45;100.00
51829;BME280;37881;48.024;8.774;2023-02-17T18:53:54;94849.56;;;8.46;100.00
51829;BME280;37881;48.024;8.774;2023-02-17T18:56:24;94847.56;;;8.43;100.00
51829;BME280;37881;48.024;8.774;2023-02-17T18:58:52;94847.91;;;8.37;100.00
51829;BME280;37881;48.024;8.774;2023-02-17T19:01:26;94845.13;;;8.34;100.00
51829;BME280;37881;48.024;8.774;2023-02-17T19:03:54;94846.69;;;8.35;100.00
51829;BME280;37881;48.024;8.774;2023-02-17T19:06:24;94855.66;;;8.32;100.00
51829;BME280;37881;48.024;8.774;2023-02-17T19:08:51;94853.31;;;8.30;100.00
51829;BME280;37881;48.024;8.774;2023-02-17T19:11:19;94862.25;;;8.24;100.00
51829;BME280;37881;48.024;8.774;2023-02-17T19:13:46;94852.81;;;8.17;100.00
51829;BME280;37881;48.024;8.774;2023-02-17T19:16:18;94850.84;;;8.18;100.00
51829;BME280;37881;48.024;8.774;2023-02-17T19:18:46;94857.50;;;8.20;100.00
51829;BME280;37881;48.024;8.774;2023-02-17T19:21:13;94864.56;;;8.22;100.00
51829;BME280;37881;48.024;8.774;2023-02-17T19:23:41;94866.53;;;8.21;100.00
51829;BME280;37881;48.024;8.774;2023-02-17T19:26:09;94864.53;;;8.18;100.00
51829;BME280;37881;48.024;8.774;2023-02-17T19:28:37;94871.16;;;8.17;100.00
51829;BME280;37881;48.024;8.774;2023-02-17T19:31:09;94877.47;;;8.21;100.00
51829;BME280;37881;48.024;8.774;2023-02-17T19:33:36;94882.56;;;8.26;100.00
51829;BME280;37881;48.024;8.774;2023-02-17T19:36:11;94881.78;;;8.26;100.00
51829;BME280;37881;48.024;8.774;2023-02-17T19:38:38;94892.13;;;8.06;100.00
51829;BME280;37881;48.024;8.774;2023-02-17T19:41:06;94887.88;;;8.08;100.00
51829;BME280;37881;48.024;8.774;2023-02-17T19:43:33;94887.63;;;8.24;100.00
51829;BME280;37881;48.024;8.774;2023-02-17T19:46:01;94899.84;;;8.34;100.00
51829;BME280;37881;48.024;8.774;2023-02-17T19:48:28;94906.19;;;8.42;100.00
51829;BME280;37881;48.024;8.774;2023-02-17T19:51:00;94906.22;;;8.49;100.00
51829;BME280;37881;48.024;8.774;2023-02-17T19:53:27;94908.97;;;8.45;100.00
51829;BME280;37881;48.024;8.774;2023-02-17T19:55:54;94904.31;;;8.53;100.00
51829;BME280;37881;48.024;8.774;2023-02-17T19:58:20;94899.66;;;8.57;100.00
51829;BME280;37881;48.024;8.774;2023-02-17T20:00:47;94912.22;;;8.65;100.00
51829;BME280;37881;48.024;8.774;2023-02-17T20:03:14;94901.34;;;8.72;100.00
51829;BME280;37881;48.024;8.774;2023-02-17T20:05:41;94904.03;;;8.65;100.00
51829;BME280;37881;48.024;8.774;2023-02-17T20:08:08;94896.59;;;8.62;100.00
51829;BME280;37881;48.024;8.774;2023-02-17T20:10:38;94892.28;;;8.65;100.00
51829;BME280;37881;48.024;8.774;2023-02-17T20:13:05;94892.38;;;8.72;100.00
51829;BME280;37881;48.024;8.774;2023-02-17T20:15:31;94898.28;;;8.81;100.00
51829;BME280;37881;48.024;8.774;2023-02-17T20:17:58;94906.19;;;8.90;100.00
51829;BME280;37881;48.024;8.774;2023-02-17T20:20:25;94901.94;;;8.99;100.00
51829;BME280;37881;48.024;8.774;2023-02-17T20:22:51;94897.63;;;8.98;100.00
51829;BME280;37881;48.024;8.774;2023-02-17T20:25:18;94896.09;;;9.05;100.00
51829;BME280;37881;48.024;8.774;2023-02-17T20:27:45;94905.09;;;9.05;100.00
51829;BME280;37881;48.024;8.774;2023-02-17T20:30:12;94901.59;;;9.08;100.00
51829;BME280;37881;48.024;8.774;2023-02-17T20:32:38;94906.69;;;9.06;100.00
51829;BME280;37881;48.024;8.774;2023-02-17T20:35:06;94907.41;;;8.96;100.00
51829;BME280;37881;48.024;8.774;2023-02-17T20:37:33;94909.81;;;9.08;100.00
51829;BME280;37881;48.024;8.774;2023-02-17T20:40:00;94909.16;;;9.26;100.00
51829;BME280;37881;48.024;8.774;2023-02-17T20:42:29;94911.78;;;9.11;100.00
51829;BME280;37881;48.024;8.774;2023-02-17T20:44:56;94912.28;;;9.28;100.00
51829;BME280;37881;48.024;8.774;2023-02-17T20:47:22;94911.16;;;9.36;100.00
51829;BME280;37881;48.024;8.774;2023-02-17T20:49:49;94920.94;;;9.37;100.00
51829;BME280;37881;48.024;8.774;2023-02-17T20:52:16;94922.09;;;9.32;100.00
51829;BME280;37881;48.024;8.774;2023-02-17T20:54:44;94915.50;;;9.44;100.00
51829;BME280;37881;48.024;8.774;2023-02-17T20:57:13;94916.31;;;9.48;100.00
51829;BME280;37881;48.024;8.774;2023-02-17T20:59:40;94919.44;;;9.50;100.00
51829;BME280;37881;48.024;8.774;2023-02-17T21:02:09;94921.00;;;9.44;100.00
51829;BME280;37881;48.024;8.774;2023-02-17T21:04:36;94931.16;;;9.47;100.00
51829;BME280;37881;48.024;8.774;2023-02-17T21:07:03;94915.91;;;9.46;100.00
51829;BME280;37881;48.024;8.774;2023-02-17T21:09:29;94913.97;;;9.50;100.00
51829;BME280;37881;48.024;8.774;2023-02-17T21:11:56;94919.09;;;9.59;100.00
51829;BME280;37881;48.024;8.774;2023-02-17T21:14:23;94916.25;;;9.41;100.00
51829;BME280;37881;48.024;8.774;2023-02-17T21:16:49;94917.03;;;9.42;100.00
51829;BME280;37881;48.024;8.774;2023-02-17T21:19:16;94917.47;;;9.47;100.00
51829;BME280;37881;48.024;8.774;2023-02-17T21:21:44;94922.91;;;9.36;100.00
51829;BME280;37881;48.024;8.774;2023-02-17T21:24:11;94922.91;;;9.44;100.00
51829;BME280;37881;48.024;8.774;2023-02-17T21:26:38;94924.09;;;9.43;100.00
51829;BME280;37881;48.024;8.774;2023-02-17T21:29:05;94924.09;;;9.43;100.00
51829;BME280;37881;48.024;8.774;2023-02-17T21:31:31;94927.59;;;9.39;100.00
51829;BME280;37881;48.024;8.774;2023-02-17T21:33:59;94924.13;;;9.46;100.00
51829;BME280;37881;48.024;8.774;2023-02-17T21:36:26;94933.50;;;9.45;100.00
51829;BME280;37881;48.024;8.774;2023-02-17T21:38:54;94933.09;;;9.43;100.00
51829;BME280;37881;48.024;8.774;2023-02-17T21:41:22;94935.50;;;9.48;100.00
51829;BME280;37881;48.024;8.774;2023-02-17T21:43:49;94934.59;;;9.30;100.00
51829;BME280;37881;48.024;8.774;2023-02-17T21:46:34;94937.75;;;9.32;100.00
51829;BME280;37881;48.024;8.774;2023-02-17T21:49:02;94937.44;;;9.48;100.00
51829;BME280;37881;48.024;8.774;2023-02-17T21:51:29;94937.44;;;9.51;100.00
51829;BME280;37881;48.024;8.774;2023-02-17T21:53:57;94937.47;;;9.55;100.00
51829;BME280;37881;48.024;8.774;2023-02-17T21:56:24;94939.84;;;9.56;100.00
51829;BME280;37881;48.024;8.774;2023-02-17T21:58:52;94945.38;;;9.67;100.00
51829;BME280;37881;48.024;8.774;2023-02-17T22:01:20;94935.19;;;9.64;100.00
51829;BME280;37881;48.024;8.774;2023-02-17T22:03:47;94932.03;;;9.62;100.00
51829;BME280;37881;48.024;8.774;2023-02-17T22:06:23;94938.69;;;9.65;100.00
51829;BME280;37881;48.024;8.774;2023-02-17T22:08:51;94939.84;;;9.64;100.00
51829;BME280;37881;48.024;8.774;2023-02-17T22:11:21;94937.06;;;9.49;100.00
51829;BME280;37881;48.024;8.774;2023-02-17T22:13:48;94933.53;;;9.49;100.00
51829;BME280;37881;48.024;8.774;2023-02-17T22:16:15;94933.97;;;9.62;100.00
51829;BME280;37881;48.024;8.774;2023-02-17T22:18:41;94926.50;;;9.48;100.00
51829;BME280;37881;48.024;8.774;2023-02-17T22:21:11;94924.81;;;9.29;100.00
51829;BME280;37881;48.024;8.774;2023-02-17T22:23:38;94931.47;;;9.31;100.00
51829;BME280;37881;48.024;8.774;2023-02-17T22:26:17;94927.19;;;9.34;100.00
51829;BME280;37881;48.024;8.774;2023-02-17T22:28:45;94927.56;;;9.32;100.00
51829;BME280;37881;48.024;8.774;2023-02-17T22:31:13;94926.78;;;9.35;100.00
51829;BME280;37881;48.024;8.774;2023-02-17T22:33:41;94930.34;;;9.36;100.00
51829;BME280;37881;48.024;8.774;2023-02-17T22:36:13;94930.66;;;9.27;100.00
51829;BME280;37881;48.024;8.774;2023-02-17T22:38:40;94935.41;;;9.37;100.00
51829;BME280;37881;48.024;8.774;2023-02-17T22:41:09;94926.06;;;9.42;100.00
51829;BME280;37881;48.024;8.774;2023-02-17T22:43:38;94927.63;;;9.43;100.00
51829;BME280;37881;48.024;8.774;2023-02-17T22:46:05;94934.56;;;9.23;100.00
51829;BME280;37881;48.024;8.774;2023-02-17T22:48:35;94929.94;;;9.34;100.00
51829;BME280;37881;48.024;8.774;2023-02-17T22:51:07;94929.59;;;9.46;100.00
51829;BME280;37881;48.024;8.774;2023-02-17T22:53:34;94929.94;;;9.34;100.00
51829;BME280;37881;48.024;8.774;2023-02-17T22:56:01;94928.31;;;9.26;100.00
51829;BME280;37881;48.024;8.774;2023-02-17T22:58:28;94933.78;;;9.22;100.00
51829;BME280;37881;48.024;8.774;2023-02-17T23:01:16;94930.28;;;9.29;100.00
51829;BME280;37881;48.024;8.774;2023-02-17T23:03:44;94925.19;;;9.24;100.00
51829;BME280;37881;48.024;8.774;2023-02-17T23:06:14;94919.31;;;9.25;100.00
51829;BME280;37881;48.024;8.774;2023-02-17T23:08:44;94910.69;;;9.19;100.00
51829;BME280;37881;48.024;8.774;2023-02-17T23:11:13;94919.28;;;9.18;100.00
51829;BME280;37881;48.024;8.774;2023-02-17T23:13:40;94919.31;;;9.22;100.00
51829;BME280;37881;48.024;8.774;2023-02-17T23:16:07;94922.00;;;9.18;100.00
51829;BME280;37881;48.024;8.774;2023-02-17T23:18:35;94929.84;;;9.19;100.00
51829;BME280;37881;48.024;8.774;2023-02-17T23:21:08;94926.38;;;9.26;100.00
51829;BME280;37881;48.024;8.774;2023-02-17T23:23:35;94921.25;;;9.25;100.00
51829;BME280;37881;48.024;8.774;2023-02-17T23:26:02;94928.72;;;9.28;100.00
51829;BME280;37881;48.024;8.774;2023-02-17T23:28:29;94929.88;;;9.27;100.00
51829;BME280;37881;48.024;8.774;2023-02-17T23:30:56;94933.41;;;9.27;100.00
51829;BME280;37881;48.024;8.774;2023-02-17T23:33:23;94940.03;;;9.23;100.00
51829;BME280;37881;48.024;8.774;2023-02-17T23:35:50;94936.94;;;9.28;100.00
51829;BME280;37881;48.024;8.774;2023-02-17T23:38:19;94938.50;;;9.29;100.00
51829;BME280;37881;48.024;8.774;2023-02-17T23:40:48;94940.91;;;9.34;100.00
51829;BME280;37881;48.024;8.774;2023-02-17T23:43:16;94935.78;;;9.32;100.00
51829;BME280;37881;48.024;8.774;2023-02-17T23:45:43;94936.22;;;9.38;100.00
51829;BME280;37881;48.024;8.774;2023-02-17T23:48:10;94933.06;;;9.39;100.00
51829;BME280;37881;48.024;8.774;2023-02-17T23:50:37;94937.41;;;9.40;100.00
51829;BME280;37881;48.024;8.774;2023-02-17T23:53:04;94932.69;;;9.34;100.00
51829;BME280;37881;48.024;8.774;2023-02-17T23:55:31;94926.84;;;9.43;100.00
51829;BME280;37881;48.024;8.774;2023-02-17T23:57:58;94923.25;;;9.31;100.00
